createdAt,value
2022-12-20T00:00:41.650Z,5.49
2022-12-20T00:01:42.393Z,5.43
2022-12-20T00:02:42.677Z,5.49
2022-12-20T00:03:43.084Z,5.52
2022-12-20T00:04:43.021Z,5.49
2022-12-20T00:05:43.976Z,5.49
2022-12-20T00:06:45.268Z,5.43
2022-12-20T00:07:45.481Z,5.44
2022-12-20T00:08:46.015Z,5.37
2022-12-20T00:09:46.954Z,5.44
2022-12-20T00:10:47.603Z,5.4
2022-12-20T00:11:48.064Z,5.43
2022-12-20T00:12:48.030Z,5.44
2022-12-20T00:13:49.257Z,5.4
2022-12-20T00:14:49.464Z,5.43
2022-12-20T00:15:50.709Z,5.44
2022-12-20T00:16:50.647Z,5.41
2022-12-20T00:17:52.122Z,5.41
2022-12-20T00:18:52.921Z,5.46
2022-12-20T00:19:53.400Z,5.41
2022-12-20T00:20:53.645Z,5.37
2022-12-20T00:21:54.037Z,5.38
2022-12-20T00:22:53.952Z,5.4
2022-12-20T00:23:54.647Z,5.26
2022-12-20T00:24:55.901Z,5.36
2022-12-20T00:25:56.146Z,5.29
2022-12-20T00:26:56.687Z,5.4
2022-12-20T00:27:56.903Z,5.31
2022-12-20T00:28:57.142Z,5.29
2022-12-20T00:29:57.660Z,5.28
2022-12-20T00:30:58.187Z,5.23
2022-12-20T00:31:58.819Z,5.28
2022-12-20T00:32:59.301Z,5.23
2022-12-20T00:34:00.232Z,5.33
2022-12-20T00:35:00.753Z,5.31
2022-12-20T00:36:00.805Z,5.29
2022-12-20T00:37:02.057Z,5.22
2022-12-20T00:38:02.605Z,5.25
2022-12-20T00:39:02.857Z,5.26
2022-12-20T00:40:02.786Z,5.23
2022-12-20T00:41:03.310Z,5.25
2022-12-20T00:42:03.674Z,5.31
2022-12-20T00:43:04.431Z,5.26
2022-12-20T00:44:04.711Z,5.33
2022-12-20T00:45:05.697Z,5.4
2022-12-20T00:46:06.692Z,5.34
2022-12-20T00:47:07.664Z,5.4
2022-12-20T00:48:08.344Z,5.36
2022-12-20T00:49:08.531Z,5.31
2022-12-20T00:50:09.444Z,5.26
2022-12-20T00:51:10.689Z,5.4
2022-12-20T00:52:10.684Z,5.44
2022-12-20T00:53:11.897Z,5.38
2022-12-20T00:54:12.464Z,5.4
2022-12-20T00:55:12.658Z,5.41
2022-12-20T00:56:13.875Z,5.44
2022-12-20T00:57:14.676Z,5.43
2022-12-20T00:58:14.625Z,5.41
2022-12-20T00:59:15.178Z,5.47
2022-12-20T01:00:15.377Z,5.47
2022-12-20T01:01:16.218Z,5.44
2022-12-20T01:02:17.415Z,5.51
2022-12-20T01:03:17.565Z,5.47
2022-12-20T01:04:16.855Z,5.47
2022-12-20T01:05:17.571Z,5.51
2022-12-20T01:06:17.947Z,5.52
2022-12-20T01:07:19.449Z,5.54
2022-12-20T01:08:19.663Z,5.51
2022-12-20T01:09:20.237Z,5.54
2022-12-20T01:10:20.739Z,5.51
2022-12-20T01:11:20.668Z,5.47
2022-12-20T01:12:21.110Z,5.56
2022-12-20T01:13:22.056Z,5.44
2022-12-20T01:14:23.021Z,5.55
2022-12-20T01:15:23.661Z,5.49
2022-12-20T01:16:24.162Z,5.47
2022-12-20T01:17:24.655Z,5.56
2022-12-20T01:18:25.641Z,5.49
2022-12-20T01:19:26.140Z,5.54
2022-12-20T01:20:27.067Z,5.58
2022-12-20T01:21:28.013Z,5.51
2022-12-20T01:22:28.077Z,5.49
2022-12-20T01:23:28.874Z,5.56
2022-12-20T01:24:29.124Z,5.52
2022-12-20T01:25:31.607Z,5.46
2022-12-20T01:26:29.392Z,5.61
2022-12-20T01:27:30.296Z,5.49
2022-12-20T01:28:31.241Z,5.59
2022-12-20T01:29:32.191Z,5.59
2022-12-20T01:30:32.116Z,5.59
2022-12-20T01:31:33.135Z,5.54
2022-12-20T01:32:32.554Z,5.49
2022-12-20T01:33:33.522Z,5.52
2022-12-20T01:34:34.166Z,5.52
2022-12-20T01:35:35.110Z,5.61
2022-12-20T01:36:35.668Z,5.49
2022-12-20T01:37:35.900Z,5.56
2022-12-20T01:38:36.172Z,5.55
2022-12-20T01:39:36.503Z,5.55
2022-12-20T01:40:37.708Z,5.46
2022-12-20T01:41:37.646Z,5.56
2022-12-20T01:42:37.725Z,5.55
2022-12-20T01:43:37.663Z,5.49
2022-12-20T01:44:38.357Z,5.44
2022-12-20T01:45:39.026Z,5.44
2022-12-20T01:46:39.689Z,5.47
2022-12-20T01:47:40.176Z,5.51
2022-12-20T01:48:40.135Z,5.51
2022-12-20T01:49:40.101Z,5.55
2022-12-20T01:50:41.606Z,5.44
2022-12-20T01:51:41.559Z,5.44
2022-12-20T01:52:42.289Z,5.47
2022-12-20T01:53:42.534Z,5.38
2022-12-20T01:54:42.796Z,5.37
2022-12-20T01:55:43.029Z,5.4
2022-12-20T01:56:43.250Z,5.38
2022-12-20T01:57:43.498Z,5.37
2022-12-20T01:58:43.430Z,5.34
2022-12-20T01:59:43.960Z,5.31
2022-12-20T02:00:44.299Z,5.25
2022-12-20T02:01:44.575Z,5.28
2022-12-20T02:02:45.331Z,5.28
2022-12-20T02:03:45.381Z,5.26
2022-12-20T02:04:45.621Z,5.28
2022-12-20T02:05:46.134Z,5.2
2022-12-20T02:06:46.078Z,5.25
2022-12-20T02:07:47.013Z,5.25
2022-12-20T02:08:47.561Z,5.26
2022-12-20T02:09:47.716Z,5.29
2022-12-20T02:10:48.399Z,5.26
2022-12-20T02:11:49.327Z,5.26
2022-12-20T02:12:50.094Z,5.25
2022-12-20T02:13:51.009Z,5.29
2022-12-20T02:14:51.700Z,5.31
2022-12-20T02:15:51.959Z,5.26
2022-12-20T02:16:51.808Z,5.28
2022-12-20T02:17:52.961Z,5.28
2022-12-20T02:18:53.509Z,5.18
2022-12-20T02:19:53.140Z,5.22
2022-12-20T02:20:54.075Z,5.2
2022-12-20T02:21:55.597Z,5.26
2022-12-20T02:22:55.918Z,5.19
2022-12-20T02:23:56.136Z,5.15
2022-12-20T02:24:57.150Z,5.13
2022-12-20T02:25:57.351Z,5.07
2022-12-20T02:26:57.865Z,5.07
2022-12-20T02:27:58.092Z,5.05
2022-12-20T02:28:58.304Z,5.01
2022-12-20T02:29:58.529Z,5.02
2022-12-20T02:30:58.744Z,4.89
2022-12-20T02:31:59.288Z,4.83
2022-12-20T02:32:59.630Z,5.05
2022-12-20T02:34:00.326Z,4.87
2022-12-20T02:35:00.972Z,5.01
2022-12-20T02:36:01.893Z,4.98
2022-12-20T02:37:03.119Z,5.01
2022-12-20T02:38:03.307Z,4.95
2022-12-20T02:39:03.509Z,5
2022-12-20T02:40:04.048Z,5.01
2022-12-20T02:41:04.262Z,5.01
2022-12-20T02:42:04.759Z,5
2022-12-20T02:43:05.409Z,5.04
2022-12-20T02:44:05.335Z,5.08
2022-12-20T02:45:06.289Z,4.97
2022-12-20T02:46:06.659Z,5.05
2022-12-20T02:47:07.068Z,5.02
2022-12-20T02:48:08.290Z,5.07
2022-12-20T02:49:09.224Z,5.05
2022-12-20T02:50:09.720Z,5
2022-12-20T02:51:10.634Z,5.1
2022-12-20T02:52:11.334Z,5.08
2022-12-20T02:53:12.091Z,5.02
2022-12-20T02:54:12.148Z,5.04
2022-12-20T02:55:12.462Z,5.07
2022-12-20T02:56:13.387Z,5.1
2022-12-20T02:57:13.884Z,5.07
2022-12-20T02:58:13.530Z,5.07
2022-12-20T02:59:15.046Z,5.19
2022-12-20T03:00:15.629Z,5.1
2022-12-20T03:01:16.027Z,5.08
2022-12-20T03:02:17.183Z,5.04
2022-12-20T03:03:17.526Z,5.12
2022-12-20T03:04:18.211Z,5.18
2022-12-20T03:05:18.475Z,5.15
2022-12-20T03:06:19.681Z,5.13
2022-12-20T03:07:20.093Z,5.18
2022-12-20T03:08:20.764Z,5.13
2022-12-20T03:09:21.693Z,5.12
2022-12-20T03:10:22.343Z,5.19
2022-12-20T03:11:22.591Z,5.08
2022-12-20T03:12:22.986Z,5.16
2022-12-20T03:13:23.994Z,5.15
2022-12-20T03:14:24.661Z,5.15
2022-12-20T03:15:25.948Z,5.15
2022-12-20T03:16:26.057Z,5.13
2022-12-20T03:17:26.441Z,5.13
2022-12-20T03:18:27.151Z,5.18
2022-12-20T03:19:28.085Z,5.19
2022-12-20T03:20:28.715Z,5.12
2022-12-20T03:21:29.626Z,5.07
2022-12-20T03:22:29.575Z,5.08
2022-12-20T03:23:29.971Z,5.13
2022-12-20T03:24:30.509Z,5.07
2022-12-20T03:25:30.760Z,5.04
2022-12-20T03:26:31.186Z,5.1
2022-12-20T03:27:31.867Z,5.13
2022-12-20T03:28:33.106Z,5.07
2022-12-20T03:29:34.114Z,5.02
2022-12-20T03:30:34.485Z,5.02
2022-12-20T03:31:35.031Z,5.12
2022-12-20T03:32:35.254Z,5.1
2022-12-20T03:33:36.027Z,5.07
2022-12-20T03:34:36.981Z,5.08
2022-12-20T03:35:37.249Z,5.01
2022-12-20T03:36:37.170Z,4.98
2022-12-20T03:37:38.134Z,5.02
2022-12-20T03:38:38.323Z,4.97
2022-12-20T03:39:38.811Z,4.9
2022-12-20T03:40:38.787Z,4.87
2022-12-20T03:41:39.709Z,4.83
2022-12-20T03:42:39.988Z,4.92
2022-12-20T03:43:41.103Z,4.82
2022-12-20T03:44:42.214Z,4.9
2022-12-20T03:45:42.975Z,4.92
2022-12-20T03:46:43.328Z,4.84
2022-12-20T03:47:43.418Z,4.84
2022-12-20T03:48:44.919Z,4.87
2022-12-20T03:49:45.173Z,4.84
2022-12-20T03:50:45.374Z,4.82
2022-12-20T03:51:46.027Z,4.83
2022-12-20T03:52:47.305Z,4.79
2022-12-20T03:53:47.612Z,4.83
2022-12-20T03:54:48.124Z,4.9
2022-12-20T03:55:51.303Z,4.89
2022-12-20T03:56:48.959Z,4.87
2022-12-20T03:57:50.185Z,4.84
2022-12-20T03:58:50.410Z,4.83
2022-12-20T03:59:50.170Z,4.92
2022-12-20T04:00:51.394Z,4.84
2022-12-20T04:01:53.097Z,4.92
2022-12-20T04:02:54.187Z,4.83
2022-12-20T04:03:54.640Z,4.82
2022-12-20T04:04:55.342Z,4.87
2022-12-20T04:05:55.549Z,4.84
2022-12-20T04:06:56.780Z,4.79
2022-12-20T04:07:57.471Z,4.82
2022-12-20T04:08:57.673Z,4.95
2022-12-20T04:09:57.876Z,4.87
2022-12-20T04:10:58.422Z,4.83
2022-12-20T04:11:58.336Z,4.83
2022-12-20T04:12:59.318Z,4.83
2022-12-20T04:13:59.374Z,4.87
2022-12-20T04:14:59.741Z,4.9
2022-12-20T04:16:06.146Z,4.9
2022-12-20T04:17:00.495Z,4.9
2022-12-20T04:18:01.716Z,4.86
2022-12-20T04:19:01.929Z,4.87
2022-12-20T04:20:02.193Z,4.98
2022-12-20T04:21:01.895Z,5
2022-12-20T04:22:10.629Z,5.05
2022-12-20T04:23:03.871Z,5.02
2022-12-20T04:24:03.915Z,5.02
2022-12-20T04:25:05.123Z,4.95
2022-12-20T04:26:05.683Z,5
2022-12-20T04:27:05.942Z,5
2022-12-20T04:28:06.864Z,4.98
2022-12-20T04:29:08.108Z,5.02
2022-12-20T04:30:08.008Z,5.01
2022-12-20T04:31:09.444Z,4.95
2022-12-20T04:32:09.596Z,5.01
2022-12-20T04:33:09.851Z,5.02
2022-12-20T04:34:10.163Z,5
2022-12-20T04:35:11.392Z,5.02
2022-12-20T04:36:11.594Z,5.01
2022-12-20T04:37:12.295Z,5.07
2022-12-20T04:38:13.531Z,5.05
2022-12-20T04:39:13.747Z,5.1
2022-12-20T04:40:13.692Z,5.07
2022-12-20T04:41:13.927Z,5.05
2022-12-20T04:42:14.857Z,5.04
2022-12-20T04:43:15.808Z,5.08
2022-12-20T04:44:16.230Z,5.1
2022-12-20T04:45:16.151Z,5.12
2022-12-20T04:46:17.319Z,5.23
2022-12-20T04:47:17.124Z,5.13
2022-12-20T04:49:00.792Z,5.2
2022-12-20T04:49:17.735Z,5.29
2022-12-20T04:50:18.401Z,5.2
2022-12-20T04:51:18.755Z,5.2
2022-12-20T04:52:19.262Z,5.19
2022-12-20T04:53:19.823Z,5.29
2022-12-20T04:54:19.830Z,5.25
2022-12-20T04:55:21.075Z,5.25
2022-12-20T04:56:21.022Z,5.25
2022-12-20T04:57:21.463Z,5.29
2022-12-20T04:58:22.411Z,5.38
2022-12-20T04:59:22.631Z,5.31
2022-12-20T05:00:23.334Z,5.34
2022-12-20T05:01:25.165Z,5.38
2022-12-20T05:02:25.548Z,5.31
2022-12-20T05:03:26.240Z,5.28
2022-12-20T05:04:37.214Z,5.38
2022-12-20T05:05:27.812Z,5.38
2022-12-20T05:06:28.482Z,5.36
2022-12-20T05:07:29.407Z,5.43
2022-12-20T05:08:30.108Z,5.43
2022-12-20T05:09:31.021Z,5.4
2022-12-20T05:10:32.239Z,5.4
2022-12-20T05:11:32.213Z,5.49
2022-12-20T05:12:32.857Z,5.44
2022-12-20T05:13:32.958Z,5.44
2022-12-20T05:14:33.441Z,5.46
2022-12-20T05:15:34.386Z,5.44
2022-12-20T05:16:35.037Z,5.47
2022-12-20T05:17:35.670Z,5.38
2022-12-20T05:18:36.324Z,5.43
2022-12-20T05:19:36.347Z,5.4
2022-12-20T05:20:37.896Z,5.38
2022-12-20T05:21:38.098Z,5.43
2022-12-20T05:22:38.321Z,5.47
2022-12-20T05:23:38.849Z,5.47
2022-12-20T05:24:39.273Z,5.55
2022-12-20T05:25:39.898Z,5.55
2022-12-20T05:26:40.186Z,5.59
2022-12-20T05:27:41.107Z,5.58
2022-12-20T05:28:41.301Z,5.49
2022-12-20T05:29:42.294Z,5.56
2022-12-20T05:30:43.526Z,5.69
2022-12-20T05:31:44.129Z,5.61
2022-12-20T05:32:44.618Z,5.58
2022-12-20T05:33:44.579Z,5.62
2022-12-20T05:34:45.946Z,5.65
2022-12-20T05:35:46.188Z,5.61
2022-12-20T05:36:46.866Z,5.59
2022-12-20T05:37:48.369Z,5.62
2022-12-20T05:38:49.056Z,5.61
2022-12-20T05:39:49.492Z,5.61
2022-12-20T05:40:50.409Z,5.52
2022-12-20T05:41:51.772Z,5.43
2022-12-20T05:42:52.039Z,5.55
2022-12-20T05:43:53.244Z,5.51
2022-12-20T05:44:53.310Z,5.54
2022-12-20T05:45:54.535Z,5.44
2022-12-20T05:46:54.986Z,5.43
2022-12-20T05:47:55.222Z,5.44
2022-12-20T05:48:55.578Z,5.46
2022-12-20T05:49:56.826Z,5.41
2022-12-20T05:50:57.674Z,5.43
2022-12-20T05:51:58.306Z,5.41
2022-12-20T05:52:58.508Z,5.51
2022-12-20T05:53:58.832Z,5.46
2022-12-20T05:54:59.325Z,5.51
2022-12-20T05:56:00.005Z,5.44
2022-12-20T05:57:01.281Z,5.49
2022-12-20T05:58:02.209Z,5.52
2022-12-20T05:59:02.156Z,5.52
2022-12-20T06:00:02.816Z,5.61
2022-12-20T06:01:03.471Z,5.58
2022-12-20T06:02:04.874Z,5.61
2022-12-20T06:03:05.514Z,5.56
2022-12-20T06:04:05.240Z,5.54
2022-12-20T06:05:05.723Z,5.56
2022-12-20T06:06:14.340Z,5.54
2022-12-20T06:07:05.778Z,5.58
2022-12-20T06:08:06.000Z,5.61
2022-12-20T06:09:07.023Z,5.56
2022-12-20T06:10:07.237Z,5.58
2022-12-20T06:11:06.882Z,5.65
2022-12-20T06:12:08.564Z,5.7
2022-12-20T06:13:09.191Z,5.69
2022-12-20T06:14:09.540Z,5.73
2022-12-20T06:15:10.434Z,5.64
2022-12-20T06:16:11.862Z,5.69
2022-12-20T06:17:11.716Z,5.7
2022-12-20T06:18:12.391Z,5.8
2022-12-20T06:19:21.758Z,5.77
2022-12-20T06:20:14.117Z,5.79
2022-12-20T06:21:14.657Z,5.74
2022-12-20T06:22:15.326Z,5.74
2022-12-20T06:23:15.652Z,5.79
2022-12-20T06:24:16.904Z,5.72
2022-12-20T06:25:17.310Z,5.79
2022-12-20T06:26:18.280Z,5.74
2022-12-20T06:27:18.540Z,5.77
2022-12-20T06:28:18.873Z,5.81
2022-12-20T06:29:19.369Z,5.72
2022-12-20T06:30:20.067Z,5.69
2022-12-20T06:31:20.849Z,5.72
2022-12-20T06:32:21.006Z,5.77
2022-12-20T06:33:21.946Z,5.69
2022-12-20T06:34:23.136Z,5.65
2022-12-20T06:35:23.164Z,5.73
2022-12-20T06:36:24.108Z,5.72
2022-12-20T06:37:24.313Z,5.7
2022-12-20T06:38:23.973Z,5.65
2022-12-20T06:39:24.639Z,5.67
2022-12-20T06:40:24.856Z,5.74
2022-12-20T06:41:24.793Z,5.69
2022-12-20T06:42:26.045Z,5.7
2022-12-20T06:43:26.683Z,5.64
2022-12-20T06:44:27.916Z,5.62
2022-12-20T06:45:28.206Z,5.59
2022-12-20T06:46:29.043Z,5.58
2022-12-20T06:47:29.223Z,5.61
2022-12-20T06:48:29.888Z,5.64
2022-12-20T06:49:29.838Z,5.46
2022-12-20T06:50:31.085Z,5.58
2022-12-20T06:51:32.315Z,5.49
2022-12-20T06:52:33.012Z,5.58
2022-12-20T06:53:32.947Z,5.58
2022-12-20T06:54:33.894Z,5.44
2022-12-20T06:55:33.993Z,5.55
2022-12-20T06:56:41.908Z,5.51
2022-12-20T06:57:35.956Z,5.58
2022-12-20T06:58:36.903Z,5.56
2022-12-20T06:59:38.124Z,5.58
2022-12-20T07:00:38.496Z,5.55
2022-12-20T07:01:39.478Z,5.62
2022-12-20T07:02:40.523Z,5.51
2022-12-20T07:03:40.277Z,5.55
2022-12-20T07:04:40.103Z,5.65
2022-12-20T07:05:41.195Z,5.61
2022-12-20T07:06:41.710Z,5.59
2022-12-20T07:07:50.019Z,5.58
2022-12-20T07:08:42.256Z,5.58
2022-12-20T07:09:43.312Z,5.69
2022-12-20T07:10:43.880Z,5.58
2022-12-20T07:11:44.141Z,5.61
2022-12-20T07:12:51.147Z,5.65
2022-12-20T07:13:45.674Z,5.7
2022-12-20T07:14:46.167Z,5.69
2022-12-20T07:15:46.220Z,5.65
2022-12-20T07:16:48.233Z,5.76
2022-12-20T07:17:48.010Z,5.76
2022-12-20T07:18:48.208Z,5.77
2022-12-20T07:19:55.946Z,5.76
2022-12-20T07:20:49.463Z,5.77
2022-12-20T07:21:50.436Z,5.77
2022-12-20T07:22:50.974Z,5.74
2022-12-20T07:23:50.949Z,5.74
2022-12-20T07:24:51.638Z,5.69
2022-12-20T07:25:52.042Z,5.74
2022-12-20T07:26:52.558Z,5.7
2022-12-20T07:27:52.622Z,5.69
2022-12-20T07:28:53.616Z,5.73
2022-12-20T07:29:54.279Z,5.72
2022-12-20T07:30:54.928Z,5.7
2022-12-20T07:31:56.451Z,5.74
2022-12-20T07:32:56.945Z,5.72
2022-12-20T07:33:57.170Z,5.67
2022-12-20T07:34:57.816Z,5.65
2022-12-20T07:36:00.806Z,5.64
2022-12-20T07:36:59.051Z,5.72
2022-12-20T07:38:00.016Z,5.7
2022-12-20T07:39:01.049Z,5.72
2022-12-20T07:40:01.750Z,5.7
2022-12-20T07:41:02.451Z,5.74
2022-12-20T07:42:03.405Z,5.79
2022-12-20T07:43:04.553Z,5.81
2022-12-20T07:44:04.914Z,5.84
2022-12-20T07:45:04.575Z,5.9
2022-12-20T07:46:06.442Z,5.88
2022-12-20T07:47:05.802Z,6.02
2022-12-20T07:48:21.738Z,5.95
2022-12-20T07:49:07.626Z,6.01
2022-12-20T07:50:07.922Z,6.02
2022-12-20T07:51:08.144Z,6.06
2022-12-20T07:52:09.444Z,6.01
2022-12-20T07:53:09.214Z,6.06
2022-12-20T07:54:09.932Z,6.02
2022-12-20T07:55:11.182Z,6.05
2022-12-20T07:56:12.015Z,6.05
2022-12-20T07:57:12.014Z,5.99
2022-12-20T07:58:12.827Z,6.02
2022-12-20T07:59:13.029Z,6.09
2022-12-20T08:00:13.997Z,6.16
2022-12-20T08:01:15.628Z,6.2
2022-12-20T08:02:16.075Z,6.22
2022-12-20T08:03:16.589Z,6.22
2022-12-20T08:04:16.386Z,6.25
2022-12-20T08:05:16.324Z,6.25
2022-12-20T08:06:16.803Z,6.22
2022-12-20T08:07:18.054Z,6.2
2022-12-20T08:08:18.726Z,6.25
2022-12-20T08:09:19.361Z,6.2
2022-12-20T08:10:21.054Z,6.29
2022-12-20T08:11:21.376Z,6.19
2022-12-20T08:12:22.315Z,6.22
2022-12-20T08:13:22.595Z,6.26
2022-12-20T08:14:23.526Z,6.26
2022-12-20T08:15:24.290Z,6.2
2022-12-20T08:16:25.602Z,6.32
2022-12-20T08:17:26.073Z,6.25
2022-12-20T08:18:27.025Z,6.26
2022-12-20T08:19:33.909Z,6.19
2022-12-20T08:20:28.108Z,6.31
2022-12-20T08:21:28.342Z,6.29
2022-12-20T08:22:28.580Z,6.26
2022-12-20T08:23:29.226Z,6.32
2022-12-20T08:24:30.298Z,6.2
2022-12-20T08:25:37.400Z,6.39
2022-12-20T08:26:31.015Z,6.38
2022-12-20T08:27:31.228Z,6.32
2022-12-20T08:28:31.789Z,6.36
2022-12-20T08:29:31.711Z,6.41
2022-12-20T08:30:33.542Z,6.44
2022-12-20T08:31:35.162Z,6.52
2022-12-20T08:32:34.757Z,6.52
2022-12-20T08:33:34.984Z,6.59
2022-12-20T08:34:35.195Z,6.6
2022-12-20T08:35:35.160Z,6.57
2022-12-20T08:36:36.184Z,6.59
2022-12-20T08:37:36.435Z,6.6
2022-12-20T08:38:36.395Z,6.68
2022-12-20T08:39:36.321Z,6.67
2022-12-20T08:40:37.308Z,6.74
2022-12-20T08:41:37.843Z,6.75
2022-12-20T08:42:37.828Z,6.77
2022-12-20T08:43:38.407Z,6.82
2022-12-20T08:44:38.820Z,6.85
2022-12-20T08:45:40.181Z,6.85
2022-12-20T08:46:41.203Z,6.87
2022-12-20T08:47:41.551Z,6.96
2022-12-20T08:48:42.574Z,7.01
2022-12-20T08:49:48.789Z,7.04
2022-12-20T08:50:44.354Z,7.1
2022-12-20T08:51:43.944Z,7.08
2022-12-20T08:52:45.058Z,7.14
2022-12-20T08:53:46.001Z,7.15
2022-12-20T08:54:47.208Z,7.18
2022-12-20T08:55:48.144Z,7.15
2022-12-20T08:56:48.917Z,7.19
2022-12-20T08:57:49.889Z,7.25
2022-12-20T08:58:51.156Z,7.23
2022-12-20T08:59:52.131Z,7.25
2022-12-20T09:00:52.077Z,7.36
2022-12-20T09:01:53.078Z,7.37
2022-12-20T09:02:54.853Z,7.31
2022-12-20T09:03:54.625Z,7.39
2022-12-20T09:04:54.209Z,7.47
2022-12-20T09:05:54.699Z,7.47
2022-12-20T09:06:55.162Z,7.44
2022-12-20T09:07:56.413Z,7.53
2022-12-20T09:08:56.638Z,7.55
2022-12-20T09:09:57.319Z,7.51
2022-12-20T09:10:58.026Z,7.69
2022-12-20T09:11:58.522Z,7.75
2022-12-20T09:12:58.459Z,7.75
2022-12-20T09:13:58.444Z,7.69
2022-12-20T09:14:59.692Z,7.74
2022-12-20T09:16:00.447Z,7.81
2022-12-20T09:17:00.391Z,7.8
2022-12-20T09:18:00.647Z,7.9
2022-12-20T09:19:08.502Z,7.9
2022-12-20T09:20:01.748Z,7.96
2022-12-20T09:21:02.144Z,7.96
2022-12-20T09:22:03.396Z,8.11
2022-12-20T09:23:03.656Z,8.09
2022-12-20T09:24:04.629Z,8.06
2022-12-20T09:25:04.869Z,8.17
2022-12-20T09:26:05.029Z,8.21
2022-12-20T09:27:05.863Z,8.27
2022-12-20T09:28:06.091Z,8.32
2022-12-20T09:29:06.638Z,8.42
2022-12-20T09:30:07.578Z,8.41
2022-12-20T09:31:08.014Z,8.41
2022-12-20T09:32:08.486Z,8.5
2022-12-20T09:33:15.923Z,8.5
2022-12-20T09:34:10.159Z,8.6
2022-12-20T09:35:10.390Z,8.71
2022-12-20T09:36:11.028Z,8.75
2022-12-20T09:37:12.110Z,8.75
2022-12-20T09:38:12.913Z,8.9
2022-12-20T09:39:13.412Z,9
2022-12-20T09:40:13.635Z,9.03
2022-12-20T09:41:22.849Z,9.05
2022-12-20T09:42:14.724Z,9.22
2022-12-20T09:43:15.660Z,9.21
2022-12-20T09:44:16.315Z,9.27
2022-12-20T09:45:17.265Z,9.27
2022-12-20T09:46:18.395Z,9.33
2022-12-20T09:47:17.908Z,9.26
2022-12-20T09:48:18.640Z,9.3
2022-12-20T09:49:18.919Z,9.27
2022-12-20T09:50:19.594Z,9.29
2022-12-20T09:51:21.016Z,9.39
2022-12-20T09:52:21.528Z,9.48
2022-12-20T09:53:24.729Z,9.47
2022-12-20T09:54:22.683Z,9.51
2022-12-20T09:55:22.937Z,9.39
2022-12-20T09:56:23.458Z,9.47
2022-12-20T09:57:24.519Z,9.54
2022-12-20T09:58:24.736Z,9.51
2022-12-20T09:59:25.046Z,9.48
2022-12-20T10:00:25.843Z,9.54
2022-12-20T10:01:40.157Z,9.52
2022-12-20T10:03:11.029Z,9.54
2022-12-20T10:03:30.125Z,9.54
2022-12-20T10:04:30.649Z,9.52
2022-12-20T10:05:40.723Z,9.54
2022-12-20T10:06:30.842Z,9.59
2022-12-20T10:07:30.902Z,9.56
2022-12-20T10:08:32.137Z,9.49
2022-12-20T10:09:32.383Z,9.47
2022-12-20T10:10:32.883Z,9.47
2022-12-20T10:11:48.204Z,9.49
2022-12-20T10:12:33.235Z,9.47
2022-12-20T10:13:34.472Z,9.49
2022-12-20T10:14:34.754Z,9.48
2022-12-20T10:15:35.482Z,9.52
2022-12-20T10:16:36.415Z,9.49
2022-12-20T10:17:38.491Z,9.49
2022-12-20T10:18:37.430Z,9.49
2022-12-20T10:19:38.661Z,9.47
2022-12-20T10:20:38.650Z,9.48
2022-12-20T10:21:39.608Z,9.47
2022-12-20T10:22:40.129Z,9.51
2022-12-20T10:23:40.386Z,9.58
2022-12-20T10:24:41.038Z,9.56
2022-12-20T10:25:42.268Z,9.58
2022-12-20T10:26:42.415Z,9.67
2022-12-20T10:27:42.941Z,9.63
2022-12-20T10:28:42.959Z,9.63
2022-12-20T10:29:44.007Z,9.66
2022-12-20T10:30:44.957Z,9.67
2022-12-20T10:31:45.369Z,9.72
2022-12-20T10:32:46.076Z,9.73
2022-12-20T10:33:46.283Z,9.74
2022-12-20T10:34:54.137Z,9.72
2022-12-20T10:35:47.184Z,9.74
2022-12-20T10:36:47.684Z,9.72
2022-12-20T10:38:12.296Z,9.72
2022-12-20T10:38:48.338Z,9.76
2022-12-20T10:39:48.564Z,9.73
2022-12-20T10:41:26.123Z,9.74
2022-12-20T10:41:50.371Z,9.7
2022-12-20T10:42:50.613Z,9.8
2022-12-20T10:43:51.605Z,9.85
2022-12-20T10:44:52.157Z,9.84
2022-12-20T10:45:52.414Z,9.9
2022-12-20T10:46:53.779Z,9.84
2022-12-20T10:47:54.142Z,9.87
2022-12-20T10:48:55.404Z,9.94
2022-12-20T10:49:56.415Z,9.94
2022-12-20T10:50:57.125Z,10.06
2022-12-20T10:51:57.174Z,10.06
2022-12-20T10:52:58.460Z,10.18
2022-12-20T10:53:59.005Z,10.27
2022-12-20T10:54:59.225Z,10.2
2022-12-20T10:55:59.870Z,10.3
2022-12-20T10:57:01.091Z,10.23
2022-12-20T10:58:01.757Z,10.27
2022-12-20T10:59:03.028Z,10.3
2022-12-20T11:00:03.450Z,10.24
2022-12-20T11:01:03.421Z,10.27
2022-12-20T11:02:04.226Z,10.21
2022-12-20T11:03:05.748Z,10.3
2022-12-20T11:04:05.322Z,10.21
2022-12-20T11:05:05.711Z,10.18
2022-12-20T11:06:06.266Z,10.21
2022-12-20T11:07:06.795Z,10.13
2022-12-20T11:09:01.190Z,10.33
2022-12-20T11:09:43.691Z,10.34
2022-12-20T11:10:43.531Z,10.39
2022-12-20T11:11:44.359Z,10.36
2022-12-20T11:12:44.602Z,10.34
2022-12-20T11:13:45.301Z,10.42
2022-12-20T11:14:46.225Z,10.45
2022-12-20T11:15:46.565Z,10.43
2022-12-20T11:16:47.645Z,10.41
2022-12-20T11:17:47.878Z,10.46
2022-12-20T11:18:47.924Z,10.53
2022-12-20T11:19:48.880Z,10.36
2022-12-20T11:20:48.876Z,10.42
2022-12-20T11:21:49.097Z,10.42
2022-12-20T11:22:49.332Z,10.51
2022-12-20T11:23:50.303Z,10.42
2022-12-20T11:24:51.240Z,10.43
2022-12-20T11:25:51.343Z,10.46
2022-12-20T11:26:51.997Z,10.43
2022-12-20T11:27:53.234Z,10.38
2022-12-20T11:28:53.760Z,10.42
2022-12-20T11:29:55.314Z,10.41
2022-12-20T11:30:55.308Z,10.41
2022-12-20T11:31:55.685Z,10.39
2022-12-20T11:32:56.160Z,10.34
2022-12-20T11:33:57.410Z,10.34
2022-12-20T11:34:57.932Z,10.41
2022-12-20T11:35:58.195Z,10.46
2022-12-20T11:36:58.865Z,10.41
2022-12-20T11:38:09.400Z,10.46
2022-12-20T11:38:59.871Z,10.41
2022-12-20T11:40:00.841Z,10.46
2022-12-20T11:41:01.381Z,10.49
2022-12-20T11:42:02.360Z,10.51
2022-12-20T11:43:02.006Z,10.49
2022-12-20T11:44:29.977Z,10.55
2022-12-20T11:45:14.194Z,10.46
2022-12-20T11:46:05.189Z,10.55
2022-12-20T11:47:06.075Z,10.49
2022-12-20T11:48:06.543Z,10.48
2022-12-20T11:49:06.616Z,10.53
2022-12-20T11:50:07.604Z,10.48
2022-12-20T11:51:17.440Z,10.58
2022-12-20T11:52:09.527Z,10.64
2022-12-20T11:53:09.204Z,10.62
2022-12-20T11:54:10.436Z,10.62
2022-12-20T11:55:10.694Z,10.62
2022-12-20T11:56:10.953Z,10.61
2022-12-20T11:57:11.488Z,10.62
2022-12-20T11:58:27.305Z,10.62
2022-12-20T11:59:15.362Z,10.62
2022-12-20T12:00:16.011Z,10.61
2022-12-20T12:01:15.995Z,10.58
2022-12-20T12:02:17.345Z,10.49
2022-12-20T12:03:17.140Z,10.64
2022-12-20T12:04:17.635Z,10.61
2022-12-20T12:05:17.968Z,10.57
2022-12-20T12:06:18.300Z,10.51
2022-12-20T12:07:18.257Z,10.53
2022-12-20T12:08:23.802Z,10.55
2022-12-20T12:09:19.604Z,10.53
2022-12-20T12:10:20.160Z,10.43
2022-12-20T12:12:10.190Z,10.42
2022-12-20T12:12:27.521Z,10.43
2022-12-20T12:13:28.225Z,10.42
2022-12-20T12:14:29.490Z,10.38
2022-12-20T12:15:29.484Z,10.39
2022-12-20T12:16:30.787Z,10.34
2022-12-20T12:17:31.629Z,10.38
2022-12-20T12:18:31.907Z,10.33
2022-12-20T12:19:33.212Z,10.36
2022-12-20T12:20:32.954Z,10.34
2022-12-20T12:21:33.474Z,10.34
2022-12-20T12:22:33.728Z,10.34
2022-12-20T12:23:33.409Z,10.36
2022-12-20T12:24:34.064Z,10.55
2022-12-20T12:25:35.288Z,10.43
2022-12-20T12:26:35.008Z,10.55
2022-12-20T12:27:36.474Z,10.46
2022-12-20T12:28:36.152Z,10.67
2022-12-20T12:29:37.748Z,10.65
2022-12-20T12:30:38.309Z,10.59
2022-12-20T12:31:39.036Z,10.72
2022-12-20T12:32:39.357Z,10.82
2022-12-20T12:33:44.494Z,10.87
2022-12-20T12:34:40.488Z,10.94
2022-12-20T12:35:41.495Z,10.84
2022-12-20T12:36:41.779Z,10.95
2022-12-20T12:37:43.196Z,10.84
2022-12-20T12:38:42.209Z,11
2022-12-20T12:39:44.474Z,11
2022-12-20T12:40:52.891Z,10.89
2022-12-20T12:41:44.367Z,10.95
2022-12-20T12:42:45.635Z,10.97
2022-12-20T12:43:45.578Z,11.05
2022-12-20T12:44:46.833Z,10.98
2022-12-20T12:45:47.127Z,11.05
2022-12-20T12:46:47.601Z,11.15
2022-12-20T12:47:47.866Z,11.13
2022-12-20T12:48:48.101Z,11.25
2022-12-20T12:49:48.867Z,11.25
2022-12-20T12:50:49.530Z,11.26
2022-12-20T12:51:50.521Z,11.27
2022-12-20T12:52:51.791Z,11.27
2022-12-20T12:53:52.433Z,11.38
2022-12-20T12:54:52.931Z,11.34
2022-12-20T12:56:34.840Z,11.38
2022-12-20T12:56:59.377Z,11.33
2022-12-20T12:58:00.664Z,11.27
2022-12-20T12:59:01.175Z,11.31
2022-12-20T13:00:01.256Z,11.34
2022-12-20T13:01:02.414Z,11.35
2022-12-20T13:02:04.155Z,11.4
2022-12-20T13:03:03.970Z,11.34
2022-12-20T13:04:03.995Z,11.41
2022-12-20T13:05:04.214Z,11.4
2022-12-20T13:06:04.865Z,11.51
2022-12-20T13:07:06.103Z,11.48
2022-12-20T13:08:06.461Z,11.48
2022-12-20T13:09:07.691Z,11.44
2022-12-20T13:10:08.757Z,11.52
2022-12-20T13:11:09.496Z,11.6
2022-12-20T13:12:17.559Z,11.7
2022-12-20T13:13:11.212Z,11.71
2022-12-20T13:14:11.711Z,11.88
2022-12-20T13:15:12.231Z,11.91
2022-12-20T13:16:12.617Z,11.97
2022-12-20T13:17:26.607Z,12.2
2022-12-20T13:18:13.422Z,12.2
2022-12-20T13:19:14.155Z,12.2
2022-12-20T13:20:14.930Z,12.26
2022-12-20T13:21:16.205Z,12.3
2022-12-20T13:22:16.452Z,12.4
2022-12-20T13:23:16.842Z,12.36
2022-12-20T13:24:17.354Z,12.39
2022-12-20T13:25:17.572Z,12.4